createdAt,value
2017-11-14T00:00:48.733Z,24.20
2017-11-14T00:03:17.777Z,17.43
2017-11-14T00:05:47.292Z,23.75
2017-11-14T00:08:16.371Z,16.87
2017-11-14T00:10:45.427Z,20.55
2017-11-14T00:13:14.467Z,20.87
2017-11-14T00:15:43.533Z,20.65
2017-11-14T00:18:12.607Z,21.90
2017-11-14T00:20:41.653Z,20.63
2017-11-14T00:23:10.683Z,22.90
2017-11-14T00:25:39.761Z,23.40
2017-11-14T00:28:08.789Z,17.87
2017-11-14T00:30:37.852Z,17.43
2017-11-14T00:33:06.894Z,23.12
2017-11-14T00:35:35.947Z,18.67
2017-11-14T00:38:04.995Z,21.85
2017-11-14T00:40:34.031Z,17.33
2017-11-14T00:43:03.181Z,23.00
2017-11-14T00:45:32.249Z,23.35
2017-11-14T00:48:02.268Z,17.53
2017-11-14T00:53:06.562Z,29.95
2017-11-14T00:55:35.618Z,19.90
2017-11-14T00:58:04.660Z,26.80
2017-11-14T01:00:33.712Z,19.60
2017-11-14T01:03:02.760Z,25.45
2017-11-14T01:05:31.825Z,14.90
2017-11-14T01:08:02.095Z,16.58
2017-11-14T01:10:31.155Z,14.67
2017-11-14T01:13:00.231Z,22.67
2017-11-14T01:15:29.284Z,19.15
2017-11-14T01:17:58.349Z,16.27
2017-11-14T01:20:29.374Z,24.52
2017-11-14T01:22:58.449Z,20.67
2017-11-14T01:25:27.495Z,39.00
2017-11-14T01:27:56.631Z,30.70
2017-11-14T01:30:25.695Z,21.70
2017-11-14T01:32:54.772Z,27.35
2017-11-14T01:35:27.584Z,25.35
2017-11-14T01:37:56.644Z,17.20
2017-11-14T01:40:25.699Z,20.30
2017-11-14T01:42:54.844Z,24.42
2017-11-14T01:45:24.874Z,21.10
2017-11-14T01:47:53.931Z,26.70
2017-11-14T01:50:22.987Z,26.17
2017-11-14T01:52:52.047Z,26.17
2017-11-14T01:55:21.127Z,17.63
2017-11-14T01:57:50.179Z,31.33
2017-11-14T02:00:38.018Z,23.30
2017-11-14T02:03:07.081Z,31.05
2017-11-14T02:05:36.207Z,37.95
2017-11-14T02:08:05.296Z,29.73
2017-11-14T02:10:41.278Z,37.22
2017-11-14T02:15:47.624Z,30.77
2017-11-14T02:20:52.843Z,29.52
2017-11-14T02:23:26.691Z,23.87
2017-11-14T02:26:01.135Z,39.15
2017-11-14T02:28:31.249Z,31.60
2017-11-14T02:31:00.328Z,27.25
2017-11-14T02:33:30.378Z,47.90
2017-11-14T02:35:59.438Z,27.23
2017-11-14T02:41:04.414Z,31.83
2017-11-14T02:43:41.067Z,30.77
2017-11-14T02:46:10.151Z,31.00
2017-11-14T02:48:39.211Z,31.65
2017-11-14T02:51:10.244Z,39.28
2017-11-14T02:53:39.304Z,41.27
2017-11-14T02:56:08.351Z,45.75
2017-11-14T02:58:39.356Z,39.78
2017-11-14T03:01:08.416Z,29.70
2017-11-14T03:03:39.372Z,61.63
2017-11-14T03:06:08.438Z,60.63
2017-11-14T03:08:39.475Z,68.53
2017-11-14T03:11:09.476Z,76.75
2017-11-14T03:13:38.531Z,58.90
2017-11-14T03:16:09.525Z,44.47
2017-11-14T03:18:39.536Z,75.62
2017-11-14T03:21:08.584Z,68.73
2017-11-14T03:23:37.651Z,74.55
2017-11-14T03:26:07.651Z,71.18
2017-11-14T03:28:36.759Z,55.73
2017-11-14T03:31:05.813Z,64.45
2017-11-14T03:33:34.860Z,52.60
2017-11-14T03:36:03.948Z,36.93
2017-11-14T03:38:33.013Z,42.72
2017-11-14T03:41:02.064Z,40.85
2017-11-14T03:43:32.106Z,41.33
2017-11-14T03:46:02.097Z,33.90
2017-11-14T03:48:32.120Z,38.88
2017-11-14T03:51:02.148Z,43.13
2017-11-14T03:53:32.231Z,30.97
2017-11-14T03:56:01.279Z,50.30
2017-11-14T04:01:06.615Z,40.60
2017-11-14T04:03:35.676Z,31.00
2017-11-14T04:06:04.729Z,40.33
2017-11-14T04:11:11.099Z,34.65
2017-11-14T04:13:40.155Z,30.55
2017-11-14T04:16:09.196Z,29.70
2017-11-14T04:21:13.504Z,36.47
2017-11-14T04:23:42.588Z,41.10
2017-11-14T04:26:12.601Z,157.05
2017-11-14T04:28:41.687Z,112.82
2017-11-14T04:31:13.834Z,114.57
2017-11-14T04:33:42.884Z,28.07
2017-11-14T04:36:30.737Z,47.25
2017-11-14T04:38:59.814Z,49.05
2017-11-14T04:41:28.874Z,34.13
2017-11-14T04:43:57.923Z,77.15
2017-11-14T04:46:27.160Z,54.95
2017-11-14T04:48:56.344Z,53.35
2017-11-14T04:51:26.401Z,259.95
2017-11-14T04:53:55.462Z,175.57
2017-11-14T04:56:24.509Z,39.77
2017-11-14T04:58:53.588Z,278.65
2017-11-14T05:01:32.571Z,139.27
2017-11-14T05:04:04.691Z,85.50
2017-11-14T05:09:17.439Z,386.05
2017-11-14T05:11:50.073Z,142.27
2017-11-14T05:14:19.138Z,221.87
2017-11-14T05:16:48.190Z,196.73
2017-11-14T05:19:19.232Z,209.95
2017-11-14T05:21:48.300Z,171.40
2017-11-14T05:24:17.356Z,240.60
2017-11-14T05:26:47.383Z,225.05
2017-11-14T05:29:17.476Z,140.10
2017-11-14T05:31:46.528Z,277.33
2017-11-14T05:34:15.608Z,258.30
2017-11-14T05:36:44.673Z,299.05
2017-11-14T05:39:13.761Z,172.30
2017-11-14T05:41:42.835Z,288.83
2017-11-14T05:44:11.935Z,369.27
2017-11-14T05:46:41.020Z,86.57
2017-11-14T05:49:10.081Z,271.27
2017-11-14T05:51:39.163Z,260.10
2017-11-14T05:56:45.493Z,196.85
2017-11-14T05:59:15.575Z,318.15
2017-11-14T06:01:44.663Z,184.57
2017-11-14T06:06:53.512Z,233.05
2017-11-14T06:09:23.532Z,224.63
2017-11-14T06:11:52.587Z,204.63
2017-11-14T06:14:21.640Z,319.90
2017-11-14T06:16:50.692Z,265.33
2017-11-14T06:19:23.709Z,156.67
2017-11-14T06:21:52.797Z,299.25
2017-11-14T06:24:21.987Z,359.05
2017-11-14T06:26:51.035Z,312.77
2017-11-14T06:29:20.365Z,336.75
2017-11-14T06:31:50.465Z,180.00
2017-11-14T06:36:58.295Z,273.40
2017-11-14T06:39:31.475Z,254.93
2017-11-14T06:44:39.692Z,226.85
2017-11-14T06:47:13.763Z,125.77
2017-11-14T06:49:43.055Z,291.85
2017-11-14T06:52:15.775Z,165.88
2017-11-14T06:54:44.972Z,92.63
2017-11-14T06:57:14.071Z,132.40
2017-11-14T06:59:43.149Z,149.33
2017-11-14T07:02:12.196Z,180.75
2017-11-14T07:04:41.260Z,136.40
2017-11-14T07:07:10.318Z,50.70
2017-11-14T07:09:39.375Z,156.55
2017-11-14T07:12:08.708Z,172.02
2017-11-14T07:14:40.021Z,94.93
2017-11-14T07:17:14.068Z,166.27
2017-11-14T07:19:44.026Z,60.70
2017-11-14T07:22:13.091Z,293.65
2017-11-14T07:24:43.136Z,232.43
2017-11-14T07:27:13.204Z,125.17
2017-11-14T07:29:42.271Z,258.92
2017-11-14T07:32:11.336Z,297.50
2017-11-14T07:34:40.389Z,245.70
2017-11-14T07:39:45.632Z,315.25
2017-11-14T07:44:49.947Z,293.95
2017-11-14T07:50:01.143Z,305.33
2017-11-14T07:55:13.855Z,375.27
2017-11-14T07:57:43.839Z,234.20
2017-11-14T08:02:48.156Z,351.20
2017-11-14T08:05:17.784Z,126.80
2017-11-14T08:07:47.088Z,183.47
2017-11-14T08:10:21.511Z,189.73
2017-11-14T08:12:51.059Z,99.07
2017-11-14T08:17:58.113Z,287.05
2017-11-14T08:20:29.378Z,553.47
2017-11-14T08:23:02.370Z,207.30
2017-11-14T08:25:31.472Z,536.38
2017-11-14T08:28:04.241Z,421.67
2017-11-14T08:30:33.285Z,255.83
2017-11-14T08:33:02.341Z,519.37
2017-11-14T08:35:31.442Z,329.87
2017-11-14T08:38:03.442Z,278.40
2017-11-14T08:40:34.472Z,339.63
2017-11-14T08:43:03.567Z,478.30
2017-11-14T08:45:32.666Z,121.03
2017-11-14T08:48:02.711Z,340.52
2017-11-14T08:50:31.897Z,121.47
2017-11-14T08:53:01.915Z,275.13
2017-11-14T08:55:30.961Z,186.43
2017-11-14T08:58:00.055Z,198.90
2017-11-14T09:00:29.098Z,287.02
2017-11-14T09:02:59.151Z,99.30
2017-11-14T09:05:33.122Z,48.33
2017-11-14T09:08:03.658Z,218.98
2017-11-14T09:10:32.702Z,148.10
2017-11-14T09:13:01.764Z,263.90
2017-11-14T09:15:30.829Z,53.67
2017-11-14T09:18:00.072Z,211.93
2017-11-14T09:20:29.120Z,180.73
2017-11-14T09:22:58.164Z,269.02
2017-11-14T09:25:27.211Z,136.95
2017-11-14T09:27:56.265Z,130.83
2017-11-14T09:30:25.313Z,110.53
2017-11-14T09:32:54.383Z,93.10
2017-11-14T09:35:23.425Z,71.00
2017-11-14T09:37:52.482Z,173.63
2017-11-14T09:40:21.527Z,324.05
2017-11-14T09:45:27.000Z,230.48
2017-11-14T09:47:56.018Z,81.67
2017-11-14T09:50:25.867Z,95.53
2017-11-14T09:52:55.849Z,90.67
2017-11-14T09:55:24.909Z,63.20
2017-11-14T09:57:54.349Z,58.20
2017-11-14T10:00:25.231Z,123.72
2017-11-14T10:02:54.297Z,55.60
2017-11-14T10:05:23.704Z,41.83
2017-11-14T10:07:55.237Z,21.23
2017-11-14T10:10:26.257Z,38.13
2017-11-14T10:12:56.291Z,36.70
2017-11-14T10:15:25.349Z,22.93
2017-11-14T10:17:54.480Z,29.20
2017-11-14T10:20:23.524Z,21.97
2017-11-14T10:22:53.445Z,26.58
2017-11-14T10:25:22.507Z,28.50
2017-11-14T10:30:28.200Z,25.80
2017-11-14T10:32:58.537Z,30.53
2017-11-14T10:35:27.977Z,29.53
2017-11-14T10:37:57.152Z,34.40
2017-11-14T10:40:26.237Z,16.03
2017-11-14T10:42:55.264Z,22.80
2017-11-14T10:45:24.718Z,28.17
2017-11-14T10:47:57.059Z,14.20
2017-11-14T10:50:26.124Z,15.63
2017-11-14T10:52:55.180Z,12.93
2017-11-14T10:55:24.785Z,13.50
2017-11-14T10:57:54.727Z,16.45
2017-11-14T11:00:32.860Z,15.53
2017-11-14T11:03:02.956Z,18.45
2017-11-14T11:05:32.037Z,16.87
2017-11-14T11:08:01.108Z,15.00
2017-11-14T11:10:31.361Z,16.07
2017-11-14T11:13:04.973Z,19.23
2017-11-14T11:15:36.794Z,14.00
2017-11-14T11:18:05.966Z,16.47
2017-11-14T11:20:36.020Z,14.53
2017-11-14T11:25:40.279Z,16.02
2017-11-14T11:28:10.576Z,12.63
2017-11-14T11:30:41.427Z,14.43
2017-11-14T11:35:46.075Z,17.35
2017-11-14T11:38:15.116Z,16.60
2017-11-14T11:40:44.163Z,18.13
2017-11-14T11:45:52.783Z,18.00
2017-11-14T11:48:21.813Z,18.00
2017-11-14T11:50:51.941Z,14.60
2017-11-14T11:53:20.989Z,13.80
2017-11-14T11:55:50.101Z,14.93
2017-11-14T11:58:19.125Z,14.13
2017-11-14T12:00:52.198Z,13.20
2017-11-14T12:03:21.380Z,14.47
2017-11-14T12:05:50.413Z,14.37
2017-11-14T12:08:21.207Z,14.20
2017-11-14T12:10:50.294Z,12.73
2017-11-14T12:13:19.394Z,13.07
2017-11-14T12:15:49.639Z,14.43
2017-11-14T12:18:19.895Z,15.65
2017-11-14T12:20:48.931Z,14.70
2017-11-14T12:23:17.988Z,13.73
2017-11-14T12:28:22.372Z,15.63
2017-11-14T12:30:55.604Z,16.23
2017-11-14T12:33:24.762Z,15.47
2017-11-14T12:35:53.824Z,15.05
2017-11-14T12:38:23.635Z,14.40
2017-11-14T12:43:28.344Z,16.20
2017-11-14T12:46:02.555Z,14.93
2017-11-14T12:48:32.511Z,13.83
2017-11-14T12:51:03.857Z,15.20
2017-11-14T12:53:32.884Z,15.27
2017-11-14T12:56:05.388Z,14.17
2017-11-14T12:58:34.452Z,13.20
2017-11-14T13:01:04.708Z,15.27
2017-11-14T13:03:35.920Z,14.57
2017-11-14T13:08:40.204Z,16.10
2017-11-14T13:11:10.273Z,15.77
2017-11-14T13:13:41.502Z,16.43
2017-11-14T13:16:10.594Z,16.87
2017-11-14T13:18:40.680Z,14.00
2017-11-14T13:23:46.057Z,13.70
2017-11-14T13:26:15.091Z,12.70
2017-11-14T13:28:44.167Z,11.60
2017-11-14T13:31:16.642Z,13.50
2017-11-14T13:36:27.581Z,17.77
2017-11-14T13:41:32.818Z,17.12
2017-11-14T13:44:01.944Z,18.70
2017-11-14T13:46:34.034Z,17.50
2017-11-14T13:49:04.279Z,19.50
2017-11-14T13:51:33.524Z,18.13
2017-11-14T13:54:04.824Z,18.27
2017-11-14T13:56:37.240Z,19.30
2017-11-14T13:59:06.270Z,19.67
2017-11-14T14:01:44.492Z,19.75
2017-11-14T14:04:14.696Z,20.40
2017-11-14T14:06:43.794Z,21.30
2017-11-14T14:11:51.557Z,21.85
2017-11-14T14:14:22.033Z,21.73
2017-11-14T14:16:51.174Z,18.70
2017-11-14T14:19:21.572Z,16.93
2017-11-14T14:21:50.624Z,19.60
2017-11-14T14:24:20.259Z,20.90
2017-11-14T14:29:31.012Z,21.77
2017-11-14T14:32:03.098Z,23.17
2017-11-14T14:34:34.559Z,22.55
2017-11-14T14:37:05.426Z,25.10
2017-11-14T14:39:35.488Z,23.73
2017-11-14T14:42:04.524Z,26.83
2017-11-14T14:44:34.707Z,24.00
2017-11-14T14:47:07.511Z,22.20
2017-11-14T14:49:39.255Z,26.97
2017-11-14T14:52:08.291Z,25.67
2017-11-14T14:57:12.579Z,30.80
2017-11-14T15:02:17.292Z,30.58
2017-11-14T15:04:46.444Z,23.07
2017-11-14T15:07:15.491Z,22.87
2017-11-14T15:09:44.539Z,29.33
2017-11-14T15:12:15.563Z,25.60
2017-11-14T15:14:47.468Z,28.70
2017-11-14T15:17:19.041Z,24.33
2017-11-14T15:19:49.813Z,31.62
2017-11-14T15:22:20.971Z,26.07
2017-11-14T15:24:50.845Z,28.87
2017-11-14T15:27:19.895Z,26.30
2017-11-14T15:29:51.880Z,26.23
2017-11-14T15:32:21.758Z,27.00
2017-11-14T15:34:52.794Z,31.87
2017-11-14T15:37:22.726Z,28.10
2017-11-14T15:39:55.135Z,28.47
2017-11-14T15:42:24.503Z,32.83
2017-11-14T15:44:54.912Z,33.05
2017-11-14T15:47:24.050Z,35.77
2017-11-14T15:49:54.989Z,46.47
2017-11-14T15:52:24.075Z,32.47
2017-11-14T15:54:54.206Z,30.50
2017-11-14T15:57:23.290Z,37.70
2017-11-14T15:59:54.392Z,44.23
2017-11-14T16:02:23.506Z,47.33
2017-11-14T16:04:53.952Z,33.87
2017-11-14T16:07:23.923Z,61.70
2017-11-14T16:09:57.461Z,52.57
2017-11-14T16:12:26.491Z,38.90
2017-11-14T16:14:57.786Z,45.60
2017-11-14T16:17:26.895Z,32.37
2017-11-14T16:19:59.476Z,150.35
2017-11-14T16:22:28.735Z,281.30
2017-11-14T16:24:59.565Z,119.75
2017-11-14T16:27:28.638Z,110.87
2017-11-14T16:30:00.025Z,304.45
2017-11-14T16:45:52.003Z,161.90
2017-11-14T16:48:21.086Z,157.40
2017-11-14T16:50:50.123Z,79.50
2017-11-14T16:53:19.202Z,366.50
2017-11-14T16:55:48.518Z,104.87
2017-11-14T16:58:17.607Z,141.73
2017-11-14T17:00:47.640Z,72.00
2017-11-14T17:05:58.526Z,174.57
2017-11-14T17:08:28.863Z,162.47
2017-11-14T17:10:57.914Z,135.10
2017-11-14T17:13:26.970Z,69.20
2017-11-14T17:15:56.027Z,384.00
2017-11-14T17:18:25.165Z,224.50
2017-11-14T17:20:54.240Z,123.28
2017-11-14T17:23:24.316Z,413.67
2017-11-14T17:25:53.353Z,67.37
2017-11-14T17:28:26.347Z,82.78
2017-11-14T17:30:55.400Z,57.20
2017-11-14T17:33:24.440Z,190.20
2017-11-14T17:35:53.524Z,90.23
2017-11-14T17:38:22.644Z,135.12
2017-11-14T17:40:51.699Z,192.32
2017-11-14T17:43:20.783Z,71.93
2017-11-14T17:45:49.824Z,127.65
2017-11-14T17:48:18.924Z,325.23
2017-11-14T17:50:48.018Z,147.10
2017-11-14T17:53:17.976Z,141.35
2017-11-14T17:55:47.016Z,58.73
2017-11-14T17:58:23.803Z,111.80
2017-11-14T18:00:52.945Z,109.32
2017-11-14T18:03:22.215Z,123.73
2017-11-14T18:05:51.267Z,255.62
2017-11-14T18:08:23.628Z,91.87
2017-11-14T18:10:52.704Z,100.12
2017-11-14T18:13:22.721Z,153.73
2017-11-14T18:18:32.989Z,132.68
2017-11-14T18:21:02.043Z,96.05
2017-11-14T18:23:31.097Z,76.00
2017-11-14T18:26:00.217Z,91.95
2017-11-14T18:28:29.271Z,123.87
2017-11-14T18:30:58.330Z,327.90
2017-11-14T18:33:27.448Z,114.83
2017-11-14T18:35:57.932Z,360.27
2017-11-14T18:41:05.247Z,299.88
2017-11-14T18:43:35.248Z,451.77
2017-11-14T18:46:05.553Z,249.40
2017-11-14T18:48:36.650Z,528.35
2017-11-14T18:51:06.644Z,230.37
2017-11-14T18:53:35.668Z,234.15
2017-11-14T18:56:06.379Z,282.73
2017-11-14T18:58:36.409Z,110.63
2017-11-14T19:01:06.316Z,239.45
2017-11-14T19:03:39.419Z,208.70
2017-11-14T19:06:13.074Z,87.40
2017-11-14T19:11:18.416Z,88.60
2017-11-14T19:13:47.462Z,83.43
2017-11-14T19:16:18.521Z,104.15
2017-11-14T19:18:48.642Z,78.53
2017-11-14T19:21:17.694Z,119.22
2017-11-14T19:23:46.853Z,50.70
2017-11-14T19:26:18.676Z,87.07
2017-11-14T19:28:47.755Z,95.47
2017-11-14T19:31:16.830Z,77.15
2017-11-14T19:33:49.222Z,146.65
2017-11-14T19:36:20.381Z,65.17
2017-11-14T19:38:51.106Z,116.90
2017-11-14T19:41:20.380Z,104.30
2017-11-14T19:46:25.039Z,95.65
2017-11-14T19:48:54.382Z,49.17
2017-11-14T19:51:23.949Z,65.47
2017-11-14T19:53:55.701Z,54.77
2017-11-14T19:56:25.265Z,52.65
2017-11-14T19:58:55.615Z,56.10
2017-11-14T20:01:33.023Z,68.68
2017-11-14T20:04:02.149Z,36.70
2017-11-14T20:06:34.770Z,53.28
2017-11-14T20:09:04.846Z,44.83
2017-11-14T20:11:37.023Z,56.60
2017-11-14T20:14:07.222Z,64.30
2017-11-14T20:21:50.804Z,60.10
2017-11-14T20:24:19.952Z,43.87
2017-11-14T20:26:49.092Z,59.08
2017-11-14T20:29:18.182Z,45.03
2017-11-14T20:31:47.240Z,53.05
2017-11-14T20:34:17.185Z,43.20
2017-11-14T20:36:46.522Z,48.47
2017-11-14T20:39:17.575Z,43.07
2017-11-14T20:41:46.637Z,54.45
2017-11-14T20:44:15.799Z,45.53
2017-11-14T20:46:44.843Z,48.55
2017-11-14T20:49:13.905Z,43.93
2017-11-14T20:51:44.087Z,48.75
2017-11-14T20:54:14.193Z,51.25
2017-11-14T20:56:44.232Z,44.03
2017-11-14T20:59:13.271Z,45.72
2017-11-14T21:04:23.529Z,46.58
2017-11-14T21:06:52.627Z,38.33
2017-11-14T21:09:21.679Z,49.80
2017-11-14T21:11:51.707Z,50.15
2017-11-14T21:14:20.776Z,54.05
2017-11-14T21:16:51.776Z,54.88
2017-11-14T21:19:20.835Z,49.72
2017-11-14T21:21:49.904Z,37.93
2017-11-14T21:26:54.452Z,53.85
2017-11-14T21:29:23.489Z,39.80
2017-11-14T21:31:52.567Z,45.83
2017-11-14T21:34:21.606Z,41.17
2017-11-14T21:36:50.654Z,47.13
2017-11-14T21:39:21.627Z,40.50
2017-11-14T21:41:50.723Z,46.90
2017-11-14T21:44:21.789Z,42.90
2017-11-14T21:46:50.872Z,46.40
2017-11-14T21:49:19.891Z,43.90
2017-11-14T21:51:48.958Z,40.83
2017-11-14T21:54:17.996Z,33.50
2017-11-14T21:56:54.000Z,40.35
2017-11-14T21:59:29.587Z,33.53
2017-11-14T22:04:40.901Z,45.45
2017-11-14T22:07:14.637Z,41.13
2017-11-14T22:09:53.069Z,43.60
2017-11-14T22:12:29.438Z,37.17
2017-11-14T22:15:04.429Z,48.33
2017-11-14T22:17:39.080Z,46.72
2017-11-14T22:20:10.879Z,39.77
2017-11-14T22:22:42.473Z,46.53
2017-11-14T22:25:15.506Z,38.67
2017-11-14T22:27:45.033Z,45.08
2017-11-14T22:30:16.930Z,44.90
2017-11-14T22:32:52.044Z,35.43
2017-11-14T22:38:00.268Z,44.55
2017-11-14T22:43:10.223Z,45.03
2017-11-14T22:48:16.231Z,46.45
2017-11-14T22:50:50.738Z,45.83
2017-11-14T22:53:27.205Z,41.63
2017-11-14T22:55:56.557Z,46.15
2017-11-14T22:58:26.691Z,48.70
2017-11-14T23:00:55.745Z,44.87
2017-11-14T23:03:24.845Z,47.00
2017-11-14T23:05:54.978Z,35.73
2017-11-14T23:08:25.068Z,44.80
2017-11-14T23:10:54.132Z,44.20
2017-11-14T23:13:31.201Z,42.83
2017-11-14T23:16:00.292Z,50.15
2017-11-14T23:18:29.363Z,38.30
2017-11-14T23:20:58.574Z,46.78
2017-11-14T23:23:27.673Z,47.08
2017-11-14T23:26:00.040Z,37.40
2017-11-14T23:28:30.090Z,41.67
2017-11-14T23:30:59.164Z,36.60
2017-11-14T23:33:29.476Z,46.65
2017-11-14T23:35:59.443Z,42.87
2017-11-14T23:38:28.509Z,52.47
2017-11-14T23:40:57.698Z,41.50
2017-11-14T23:43:27.980Z,50.38
2017-11-14T23:45:57.060Z,40.03
2017-11-14T23:48:28.070Z,49.30
2017-11-14T23:50:57.173Z,39.37
2017-11-14T23:53:27.235Z,45.08
2017-11-14T23:55:58.235Z,37.80
2017-11-14T23:58:28.233Z,45.53
